sensor_id;sensor_type;location;lat;lon;timestamp;temperature;humidity
37086;DHT22;23001;45.952;12.676;2023-11-18T00:02:16;6.10;99.90
37086;DHT22;23001;45.952;12.676;2023-11-18T00:04:42;6.10;99.90
37086;DHT22;23001;45.952;12.676;2023-11-18T00:07:07;6.10;99.90
37086;DHT22;23001;45.952;12.676;2023-11-18T00:09:33;6.20;99.90
37086;DHT22;23001;45.952;12.676;2023-11-18T00:11:58;6.20;99.90
37086;DHT22;23001;45.952;12.676;2023-11-18T00:14:24;6.10;99.90
37086;DHT22;23001;45.952;12.676;2023-11-18T00:16:49;6.00;99.90
37086;DHT22;23001;45.952;12.676;2023-11-18T00:19:15;6.00;99.90
37086;DHT22;23001;45.952;12.676;2023-11-18T00:21:40;6.10;99.90
37086;DHT22;23001;45.952;12.676;2023-11-18T00:24:06;6.20;99.90
37086;DHT22;23001;45.952;12.676;2023-11-18T00:26:33;6.10;99.90
37086;DHT22;23001;45.952;12.676;2023-11-18T00:28:59;6.10;99.90
37086;DHT22;23001;45.952;12.676;2023-11-18T00:31:26;5.90;99.90
37086;DHT22;23001;45.952;12.676;2023-11-18T00:33:51;5.90;99.90
37086;DHT22;23001;45.952;12.676;2023-11-18T00:36:17;5.90;99.90
37086;DHT22;23001;45.952;12.676;2023-11-18T00:38:43;6.00;99.90
37086;DHT22;23001;45.952;12.676;2023-11-18T00:41:08;6.00;99.90
37086;DHT22;23001;45.952;12.676;2023-11-18T00:43:34;5.90;99.90
37086;DHT22;23001;45.952;12.676;2023-11-18T00:46:00;5.70;99.90
37086;DHT22;23001;45.952;12.676;2023-11-18T00:48:26;5.70;99.90
37086;DHT22;23001;45.952;12.676;2023-11-18T00:50:52;5.60;99.90
37086;DHT22;23001;45.952;12.676;2023-11-18T00:53:17;5.60;99.90
37086;DHT22;23001;45.952;12.676;2023-11-18T00:55:44;5.70;99.90
37086;DHT22;23001;45.952;12.676;2023-11-18T00:58:10;5.60;99.90
37086;DHT22;23001;45.952;12.676;2023-11-18T01:00:36;5.60;99.90
37086;DHT22;23001;45.952;12.676;2023-11-18T01:03:01;5.50;99.90
37086;DHT22;23001;45.952;12.676;2023-11-18T01:05:28;5.50;99.90
37086;DHT22;23001;45.952;12.676;2023-11-18T01:07:56;5.50;99.90
37086;DHT22;23001;45.952;12.676;2023-11-18T01:10:22;5.50;99.90
37086;DHT22;23001;45.952;12.676;2023-11-18T01:12:48;5.40;99.90
37086;DHT22;23001;45.952;12.676;2023-11-18T01:15:13;5.40;99.90
37086;DHT22;23001;45.952;12.676;2023-11-18T01:17:39;5.50;99.90
37086;DHT22;23001;45.952;12.676;2023-11-18T01:20:06;5.60;99.90
37086;DHT22;23001;45.952;12.676;2023-11-18T01:22:38;5.70;99.90
37086;DHT22;23001;45.952;12.676;2023-11-18T01:25:05;5.60;99.90
37086;DHT22;23001;45.952;12.676;2023-11-18T01:27:31;5.50;99.90
37086;DHT22;23001;45.952;12.676;2023-11-18T01:29:59;5.50;99.90
37086;DHT22;23001;45.952;12.676;2023-11-18T01:32:25;5.40;99.90
37086;DHT22;23001;45.952;12.676;2023-11-18T01:34:51;5.40;99.90
37086;DHT22;23001;45.952;12.676;2023-11-18T01:37:16;5.50;99.90
37086;DHT22;23001;45.952;12.676;2023-11-18T01:39:42;5.60;99.90
37086;DHT22;23001;45.952;12.676;2023-11-18T01:42:08;5.70;99.90
37086;DHT22;23001;45.952;12.676;2023-11-18T01:44:34;5.60;99.90
37086;DHT22;23001;45.952;12.676;2023-11-18T01:47:03;5.50;99.90
37086;DHT22;23001;45.952;12.676;2023-11-18T01:49:31;5.60;99.90
37086;DHT22;23001;45.952;12.676;2023-11-18T01:51:57;5.60;99.90
37086;DHT22;23001;45.952;12.676;2023-11-18T01:54:26;5.50;99.90
37086;DHT22;23001;45.952;12.676;2023-11-18T01:56:53;5.40;99.90
37086;DHT22;23001;45.952;12.676;2023-11-18T01:59:19;5.30;99.90
37086;DHT22;23001;45.952;12.676;2023-11-18T02:01:48;5.20;99.90
37086;DHT22;23001;45.952;12.676;2023-11-18T02:04:15;5.30;99.90
37086;DHT22;23001;45.952;12.676;2023-11-18T02:06:41;5.30;99.90
37086;DHT22;23001;45.952;12.676;2023-11-18T02:09:07;5.30;99.90
37086;DHT22;23001;45.952;12.676;2023-11-18T02:11:37;5.30;99.90
37086;DHT22;23001;45.952;12.676;2023-11-18T02:14:08;5.30;99.90
37086;DHT22;23001;45.952;12.676;2023-11-18T02:16:38;5.20;99.90
37086;DHT22;23001;45.952;12.676;2023-11-18T02:19:04;5.10;99.90
37086;DHT22;23001;45.952;12.676;2023-11-18T02:21:35;5.10;99.90
37086;DHT22;23001;45.952;12.676;2023-11-18T02:24:01;5.20;99.90
37086;DHT22;23001;45.952;12.676;2023-11-18T02:26:27;5.10;99.90
37086;DHT22;23001;45.952;12.676;2023-11-18T02:28:52;5.10;99.90
37086;DHT22;23001;45.952;12.676;2023-11-18T02:31:21;5.10;99.90
37086;DHT22;23001;45.952;12.676;2023-11-18T02:34:00;5.10;99.90
37086;DHT22;23001;45.952;12.676;2023-11-18T02:36:36;5.10;99.90
37086;DHT22;23001;45.952;12.676;2023-11-18T02:39:04;5.10;99.90
37086;DHT22;23001;45.952;12.676;2023-11-18T02:41:33;5.10;99.90
37086;DHT22;23001;45.952;12.676;2023-11-18T02:44:00;5.10;99.90
37086;DHT22;23001;45.952;12.676;2023-11-18T02:46:26;5.10;99.90
37086;DHT22;23001;45.952;12.676;2023-11-18T02:48:53;5.30;99.90
37086;DHT22;23001;45.952;12.676;2023-11-18T02:51:22;5.30;99.90
37086;DHT22;23001;45.952;12.676;2023-11-18T02:53:47;5.30;99.90
37086;DHT22;23001;45.952;12.676;2023-11-18T02:56:13;5.30;99.90
37086;DHT22;23001;45.952;12.676;2023-11-18T02:58:38;5.30;99.90
37086;DHT22;23001;45.952;12.676;2023-11-18T03:01:04;5.30;99.90
37086;DHT22;23001;45.952;12.676;2023-11-18T03:03:30;5.30;99.90
37086;DHT22;23001;45.952;12.676;2023-11-18T03:05:57;5.20;99.90
37086;DHT22;23001;45.952;12.676;2023-11-18T03:08:22;5.10;99.90
37086;DHT22;23001;45.952;12.676;2023-11-18T03:10:48;5.00;99.90
37086;DHT22;23001;45.952;12.676;2023-11-18T03:13:17;5.00;99.90
37086;DHT22;23001;45.952;12.676;2023-11-18T03:15:43;5.00;99.90
37086;DHT22;23001;45.952;12.676;2023-11-18T03:18:08;5.00;99.90
37086;DHT22;23001;45.952;12.676;2023-11-18T03:20:34;4.90;99.90
37086;DHT22;23001;45.952;12.676;2023-11-18T03:23:00;5.00;99.90
37086;DHT22;23001;45.952;12.676;2023-11-18T03:25:28;5.00;99.90
37086;DHT22;23001;45.952;12.676;2023-11-18T03:27:54;5.00;99.90
37086;DHT22;23001;45.952;12.676;2023-11-18T03:30:20;5.00;99.90
37086;DHT22;23001;45.952;12.676;2023-11-18T03:32:45;5.00;99.90
37086;DHT22;23001;45.952;12.676;2023-11-18T03:35:11;5.00;99.90
37086;DHT22;23001;45.952;12.676;2023-11-18T03:37:40;5.00;99.90
37086;DHT22;23001;45.952;12.676;2023-11-18T03:40:09;5.00;99.90
37086;DHT22;23001;45.952;12.676;2023-11-18T03:42:35;5.00;99.90
37086;DHT22;23001;45.952;12.676;2023-11-18T03:45:03;5.00;99.90
37086;DHT22;23001;45.952;12.676;2023-11-18T03:47:29;4.90;99.90
37086;DHT22;23001;45.952;12.676;2023-11-18T03:49:56;4.90;99.90
37086;DHT22;23001;45.952;12.676;2023-11-18T03:52:22;5.00;99.90
37086;DHT22;23001;45.952;12.676;2023-11-18T03:54:47;5.10;99.90
37086;DHT22;23001;45.952;12.676;2023-11-18T03:57:13;5.20;99.90
37086;DHT22;23001;45.952;12.676;2023-11-18T03:59:39;5.20;99.90
37086;DHT22;23001;45.952;12.676;2023-11-18T04:02:04;5.10;99.90
37086;DHT22;23001;45.952;12.676;2023-11-18T04:04:30;5.10;99.90
37086;DHT22;23001;45.952;12.676;2023-11-18T04:06:55;5.10;99.90
37086;DHT22;23001;45.952;12.676;2023-11-18T04:09:21;5.10;99.90
37086;DHT22;23001;45.952;12.676;2023-11-18T04:11:47;4.80;99.90
37086;DHT22;23001;45.952;12.676;2023-11-18T04:14:12;4.80;99.90
37086;DHT22;23001;45.952;12.676;2023-11-18T04:16:38;4.80;99.90
37086;DHT22;23001;45.952;12.676;2023-11-18T04:19:03;4.90;99.90
37086;DHT22;23001;45.952;12.676;2023-11-18T04:21:30;4.90;99.90
37086;DHT22;23001;45.952;12.676;2023-11-18T04:23:56;4.90;99.90
37086;DHT22;23001;45.952;12.676;2023-11-18T04:26:21;4.90;99.90
37086;DHT22;23001;45.952;12.676;2023-11-18T04:28:47;4.90;99.90
37086;DHT22;23001;45.952;12.676;2023-11-18T04:31:12;5.00;99.90
37086;DHT22;23001;45.952;12.676;2023-11-18T04:33:38;5.00;99.90
37086;DHT22;23001;45.952;12.676;2023-11-18T04:36:06;5.10;99.90
37086;DHT22;23001;45.952;12.676;2023-11-18T04:38:35;5.10;99.90
37086;DHT22;23001;45.952;12.676;2023-11-18T04:41:00;5.00;99.90
37086;DHT22;23001;45.952;12.676;2023-11-18T04:43:28;4.90;99.90
37086;DHT22;23001;45.952;12.676;2023-11-18T04:45:55;4.90;99.90
37086;DHT22;23001;45.952;12.676;2023-11-18T04:48:21;4.80;99.90
37086;DHT22;23001;45.952;12.676;2023-11-18T04:50:47;4.80;99.90
37086;DHT22;23001;45.952;12.676;2023-11-18T04:53:12;4.70;99.90
37086;DHT22;23001;45.952;12.676;2023-11-18T04:55:38;4.80;99.90
37086;DHT22;23001;45.952;12.676;2023-11-18T04:58:04;4.80;99.90
37086;DHT22;23001;45.952;12.676;2023-11-18T05:00:34;4.80;99.90
37086;DHT22;23001;45.952;12.676;2023-11-18T05:03:00;4.80;99.90
37086;DHT22;23001;45.952;12.676;2023-11-18T05:05:25;4.80;99.90
37086;DHT22;23001;45.952;12.676;2023-11-18T05:07:51;4.80;99.90
37086;DHT22;23001;45.952;12.676;2023-11-18T05:10:16;4.80;99.90
37086;DHT22;23001;45.952;12.676;2023-11-18T05:12:44;4.70;99.90
37086;DHT22;23001;45.952;12.676;2023-11-18T05:15:09;4.70;99.90
37086;DHT22;23001;45.952;12.676;2023-11-18T05:17:38;4.70;99.90
37086;DHT22;23001;45.952;12.676;2023-11-18T05:20:04;4.70;99.90
37086;DHT22;23001;45.952;12.676;2023-11-18T05:22:30;4.70;99.90
37086;DHT22;23001;45.952;12.676;2023-11-18T05:24:57;4.60;99.90
37086;DHT22;23001;45.952;12.676;2023-11-18T05:27:22;4.60;99.90
37086;DHT22;23001;45.952;12.676;2023-11-18T05:29:48;4.70;99.90
37086;DHT22;23001;45.952;12.676;2023-11-18T05:32:22;4.70;99.90
37086;DHT22;23001;45.952;12.676;2023-11-18T05:34:51;4.70;99.90
37086;DHT22;23001;45.952;12.676;2023-11-18T05:37:19;4.70;99.90
37086;DHT22;23001;45.952;12.676;2023-11-18T05:39:45;4.60;99.90
37086;DHT22;23001;45.952;12.676;2023-11-18T05:42:11;4.50;99.90
37086;DHT22;23001;45.952;12.676;2023-11-18T05:44:37;4.50;99.90
37086;DHT22;23001;45.952;12.676;2023-11-18T05:47:03;4.50;99.90
37086;DHT22;23001;45.952;12.676;2023-11-18T05:49:28;4.50;99.90
37086;DHT22;23001;45.952;12.676;2023-11-18T05:51:54;4.40;99.90
37086;DHT22;23001;45.952;12.676;2023-11-18T05:54:20;4.50;99.90
37086;DHT22;23001;45.952;12.676;2023-11-18T05:56:45;4.50;99.90
37086;DHT22;23001;45.952;12.676;2023-11-18T05:59:11;4.50;99.90
37086;DHT22;23001;45.952;12.676;2023-11-18T06:01:37;4.40;99.90
37086;DHT22;23001;45.952;12.676;2023-11-18T06:04:02;4.40;99.90
37086;DHT22;23001;45.952;12.676;2023-11-18T06:06:28;4.40;99.90
37086;DHT22;23001;45.952;12.676;2023-11-18T06:08:54;4.30;99.90
37086;DHT22;23001;45.952;12.676;2023-11-18T06:11:20;4.30;99.90
37086;DHT22;23001;45.952;12.676;2023-11-18T06:13:46;4.40;99.90
37086;DHT22;23001;45.952;12.676;2023-11-18T06:16:15;4.40;99.90
37086;DHT22;23001;45.952;12.676;2023-11-18T06:18:41;4.30;99.90
37086;DHT22;23001;45.952;12.676;2023-11-18T06:21:12;4.30;99.90
37086;DHT22;23001;45.952;12.676;2023-11-18T06:23:38;4.30;99.90
37086;DHT22;23001;45.952;12.676;2023-11-18T06:26:04;4.40;99.90
37086;DHT22;23001;45.952;12.676;2023-11-18T06:28:30;4.40;99.90
37086;DHT22;23001;45.952;12.676;2023-11-18T06:30:55;4.40;99.90
37086;DHT22;23001;45.952;12.676;2023-11-18T06:33:21;4.30;99.90
37086;DHT22;23001;45.952;12.676;2023-11-18T06:35:55;4.40;99.90
37086;DHT22;23001;45.952;12.676;2023-11-18T06:38:21;4.40;99.90
37086;DHT22;23001;45.952;12.676;2023-11-18T06:40:48;4.50;99.90
37086;DHT22;23001;45.952;12.676;2023-11-18T06:43:18;4.60;99.90
37086;DHT22;23001;45.952;12.676;2023-11-18T06:45:44;4.50;99.90
37086;DHT22;23001;45.952;12.676;2023-11-18T06:50:57;4.50;99.90
37086;DHT22;23001;45.952;12.676;2023-11-18T06:53:23;4.50;99.90
37086;DHT22;23001;45.952;12.676;2023-11-18T06:55:49;4.50;99.90
37086;DHT22;23001;45.952;12.676;2023-11-18T06:58:15;4.60;99.90
37086;DHT22;23001;45.952;12.676;2023-11-18T07:00:40;4.70;99.90
37086;DHT22;23001;45.952;12.676;2023-11-18T07:03:06;4.80;99.90
37086;DHT22;23001;45.952;12.676;2023-11-18T07:05:31;4.80;99.90
37086;DHT22;23001;45.952;12.676;2023-11-18T07:07:57;4.90;99.90
37086;DHT22;23001;45.952;12.676;2023-11-18T07:10:22;4.90;99.90
37086;DHT22;23001;45.952;12.676;2023-11-18T07:12:48;5.00;99.90
37086;DHT22;23001;45.952;12.676;2023-11-18T07:15:14;4.90;99.90
37086;DHT22;23001;45.952;12.676;2023-11-18T07:17:40;5.00;99.90
37086;DHT22;23001;45.952;12.676;2023-11-18T07:20:06;5.10;99.90
37086;DHT22;23001;45.952;12.676;2023-11-18T07:22:32;5.10;99.90
37086;DHT22;23001;45.952;12.676;2023-11-18T07:25:00;5.30;99.90
37086;DHT22;23001;45.952;12.676;2023-11-18T07:27:26;5.30;99.90
37086;DHT22;23001;45.952;12.676;2023-11-18T07:29:51;5.40;99.90
37086;DHT22;23001;45.952;12.676;2023-11-18T07:32:18;5.40;99.90
37086;DHT22;23001;45.952;12.676;2023-11-18T07:34:45;5.40;99.90
37086;DHT22;23001;45.952;12.676;2023-11-18T07:37:10;5.40;99.90
37086;DHT22;23001;45.952;12.676;2023-11-18T07:39:38;5.50;99.90
37086;DHT22;23001;45.952;12.676;2023-11-18T07:42:12;5.60;99.90
37086;DHT22;23001;45.952;12.676;2023-11-18T07:44:38;5.70;99.90
37086;DHT22;23001;45.952;12.676;2023-11-18T07:47:04;5.70;99.90
37086;DHT22;23001;45.952;12.676;2023-11-18T07:49:31;5.80;99.90
37086;DHT22;23001;45.952;12.676;2023-11-18T07:51:57;5.90;99.90
37086;DHT22;23001;45.952;12.676;2023-11-18T07:54:23;5.90;99.90
37086;DHT22;23001;45.952;12.676;2023-11-18T07:56:49;6.00;99.90
37086;DHT22;23001;45.952;12.676;2023-11-18T07:59:16;6.00;99.90
37086;DHT22;23001;45.952;12.676;2023-11-18T08:01:43;6.00;99.90
37086;DHT22;23001;45.952;12.676;2023-11-18T08:04:12;6.10;99.90
37086;DHT22;23001;45.952;12.676;2023-11-18T08:06:42;6.10;99.90
37086;DHT22;23001;45.952;12.676;2023-11-18T08:09:08;6.20;99.90
37086;DHT22;23001;45.952;12.676;2023-11-18T08:11:38;6.30;99.90
37086;DHT22;23001;45.952;12.676;2023-11-18T08:14:04;6.40;99.90
37086;DHT22;23001;45.952;12.676;2023-11-18T08:16:30;6.40;99.90
37086;DHT22;23001;45.952;12.676;2023-11-18T08:18:55;6.40;99.90
37086;DHT22;23001;45.952;12.676;2023-11-18T08:21:21;6.40;99.90
37086;DHT22;23001;45.952;12.676;2023-11-18T08:23:47;6.50;99.90
37086;DHT22;23001;45.952;12.676;2023-11-18T08:26:13;6.50;99.90
37086;DHT22;23001;45.952;12.676;2023-11-18T08:28:39;6.60;99.90
37086;DHT22;23001;45.952;12.676;2023-11-18T08:31:06;6.60;99.90
37086;DHT22;23001;45.952;12.676;2023-11-18T08:33:32;6.60;99.90
37086;DHT22;23001;45.952;12.676;2023-11-18T08:35:58;6.70;99.90
37086;DHT22;23001;45.952;12.676;2023-11-18T08:38:25;6.80;99.90
37086;DHT22;23001;45.952;12.676;2023-11-18T08:40:51;6.90;99.90
37086;DHT22;23001;45.952;12.676;2023-11-18T08:43:17;6.90;99.90
37086;DHT22;23001;45.952;12.676;2023-11-18T08:45:42;7.00;99.90
37086;DHT22;23001;45.952;12.676;2023-11-18T08:48:08;7.00;99.90
37086;DHT22;23001;45.952;12.676;2023-11-18T08:50:34;7.00;99.90
37086;DHT22;23001;45.952;12.676;2023-11-18T08:52:59;7.10;99.90
37086;DHT22;23001;45.952;12.676;2023-11-18T08:55:32;7.10;99.90
37086;DHT22;23001;45.952;12.676;2023-11-18T08:58:05;7.10;99.90
37086;DHT22;23001;45.952;12.676;2023-11-18T09:00:41;7.20;99.90
37086;DHT22;23001;45.952;12.676;2023-11-18T09:03:11;7.20;99.90
37086;DHT22;23001;45.952;12.676;2023-11-18T09:05:45;7.20;99.90
37086;DHT22;23001;45.952;12.676;2023-11-18T09:08:24;7.30;99.90
37086;DHT22;23001;45.952;12.676;2023-11-18T09:10:50;7.30;99.90
37086;DHT22;23001;45.952;12.676;2023-11-18T09:13:22;7.30;99.90
37086;DHT22;23001;45.952;12.676;2023-11-18T09:15:50;7.40;99.90
37086;DHT22;23001;45.952;12.676;2023-11-18T09:18:16;7.60;99.90
37086;DHT22;23001;45.952;12.676;2023-11-18T09:20:43;7.90;99.90
37086;DHT22;23001;45.952;12.676;2023-11-18T09:23:09;8.00;99.90
37086;DHT22;23001;45.952;12.676;2023-11-18T09:25:34;8.00;99.90
37086;DHT22;23001;45.952;12.676;2023-11-18T09:28:01;8.20;99.90
37086;DHT22;23001;45.952;12.676;2023-11-18T09:30:28;8.30;99.90
37086;DHT22;23001;45.952;12.676;2023-11-18T09:32:55;8.30;99.90
37086;DHT22;23001;45.952;12.676;2023-11-18T09:35:21;8.40;99.90
37086;DHT22;23001;45.952;12.676;2023-11-18T09:37:46;8.50;99.90
37086;DHT22;23001;45.952;12.676;2023-11-18T09:40:15;8.60;99.90
37086;DHT22;23001;45.952;12.676;2023-11-18T09:42:42;8.80;99.90
37086;DHT22;23001;45.952;12.676;2023-11-18T09:45:09;8.90;99.90
37086;DHT22;23001;45.952;12.676;2023-11-18T09:47:44;8.90;99.90
37086;DHT22;23001;45.952;12.676;2023-11-18T09:50:12;8.90;99.90
37086;DHT22;23001;45.952;12.676;2023-11-18T09:52:42;9.00;99.90
37086;DHT22;23001;45.952;12.676;2023-11-18T09:55:26;9.10;99.90
37086;DHT22;23001;45.952;12.676;2023-11-18T09:58:03;9.10;99.90
37086;DHT22;23001;45.952;12.676;2023-11-18T10:00:29;9.30;99.90
37086;DHT22;23001;45.952;12.676;2023-11-18T10:02:58;9.60;99.90
37086;DHT22;23001;45.952;12.676;2023-11-18T10:05:26;9.70;99.90
37086;DHT22;23001;45.952;12.676;2023-11-18T10:07:52;9.90;99.90
37086;DHT22;23001;45.952;12.676;2023-11-18T10:10:18;10.00;99.90
37086;DHT22;23001;45.952;12.676;2023-11-18T10:12:55;10.10;99.90
37086;DHT22;23001;45.952;12.676;2023-11-18T10:15:23;10.20;99.90
37086;DHT22;23001;45.952;12.676;2023-11-18T10:17:50;10.20;99.90
37086;DHT22;23001;45.952;12.676;2023-11-18T10:23:13;10.30;99.90
37086;DHT22;23001;45.952;12.676;2023-11-18T10:25:51;10.30;99.90
37086;DHT22;23001;45.952;12.676;2023-11-18T10:28:30;10.40;99.90
37086;DHT22;23001;45.952;12.676;2023-11-18T10:30:59;10.50;99.90
37086;DHT22;23001;45.952;12.676;2023-11-18T10:33:31;10.70;99.90
37086;DHT22;23001;45.952;12.676;2023-11-18T10:35:57;10.70;99.90
37086;DHT22;23001;45.952;12.676;2023-11-18T10:38:24;10.80;99.90
37086;DHT22;23001;45.952;12.676;2023-11-18T10:40:58;10.90;99.90
37086;DHT22;23001;45.952;12.676;2023-11-18T10:43:26;10.90;99.90
37086;DHT22;23001;45.952;12.676;2023-11-18T10:46:07;11.00;99.90
37086;DHT22;23001;45.952;12.676;2023-11-18T10:48:42;11.10;99.90
37086;DHT22;23001;45.952;12.676;2023-11-18T10:51:13;11.10;99.90
37086;DHT22;23001;45.952;12.676;2023-11-18T10:53:42;11.20;99.90
37086;DHT22;23001;45.952;12.676;2023-11-18T10:56:29;11.20;99.90
37086;DHT22;23001;45.952;12.676;2023-11-18T10:58:58;11.20;99.90
37086;DHT22;23001;45.952;12.676;2023-11-18T11:01:31;11.10;99.90
37086;DHT22;23001;45.952;12.676;2023-11-18T11:03:57;11.20;99.90
37086;DHT22;23001;45.952;12.676;2023-11-18T11:06:26;11.20;99.90
37086;DHT22;23001;45.952;12.676;2023-11-18T11:08:56;11.20;99.90
37086;DHT22;23001;45.952;12.676;2023-11-18T11:11:24;11.20;99.90
37086;DHT22;23001;45.952;12.676;2023-11-18T11:13:58;11.30;99.90
37086;DHT22;23001;45.952;12.676;2023-11-18T11:16:39;11.40;99.90
37086;DHT22;23001;45.952;12.676;2023-11-18T11:19:08;11.50;99.90
37086;DHT22;23001;45.952;12.676;2023-11-18T11:21:44;11.40;99.90
37086;DHT22;23001;45.952;12.676;2023-11-18T11:24:19;11.40;99.90
37086;DHT22;23001;45.952;12.676;2023-11-18T11:27:50;11.40;99.90
37086;DHT22;23001;45.952;12.676;2023-11-18T11:29:59;11.40;99.90
37086;DHT22;23001;45.952;12.676;2023-11-18T11:34:53;11.40;99.90
37086;DHT22;23001;45.952;12.676;2023-11-18T11:37:25;11.30;99.90
37086;DHT22;23001;45.952;12.676;2023-11-18T11:39:51;11.30;99.90
37086;DHT22;23001;45.952;12.676;2023-11-18T11:42:19;11.30;99.90
37086;DHT22;23001;45.952;12.676;2023-11-18T11:44:46;11.30;99.90
37086;DHT22;23001;45.952;12.676;2023-11-18T11:47:12;11.30;99.90
37086;DHT22;23001;45.952;12.676;2023-11-18T11:49:43;11.20;99.90
37086;DHT22;23001;45.952;12.676;2023-11-18T11:52:30;11.30;99.90
37086;DHT22;23001;45.952;12.676;2023-11-18T11:55:05;11.30;99.90
37086;DHT22;23001;45.952;12.676;2023-11-18T11:57:38;11.40;99.90
37086;DHT22;23001;45.952;12.676;2023-11-18T12:00:04;11.40;99.90
37086;DHT22;23001;45.952;12.676;2023-11-18T12:02:47;11.40;99.90
37086;DHT22;23001;45.952;12.676;2023-11-18T12:05:16;11.40;99.90
37086;DHT22;23001;45.952;12.676;2023-11-18T12:07:44;11.40;99.90
37086;DHT22;23001;45.952;12.676;2023-11-18T12:10:11;11.40;99.90
37086;DHT22;23001;45.952;12.676;2023-11-18T12:12:45;11.50;99.90
37086;DHT22;23001;45.952;12.676;2023-11-18T12:15:11;11.50;99.90
37086;DHT22;23001;45.952;12.676;2023-11-18T12:23:02;11.50;99.90
37086;DHT22;23001;45.952;12.676;2023-11-18T12:25:34;11.50;99.90
37086;DHT22;23001;45.952;12.676;2023-11-18T12:28:06;11.60;99.60
37086;DHT22;23001;45.952;12.676;2023-11-18T12:33:03;11.70;98.80
37086;DHT22;23001;45.952;12.676;2023-11-18T12:38:09;11.70;97.90
37086;DHT22;23001;45.952;12.676;2023-11-18T12:40:57;11.60;97.30
37086;DHT22;23001;45.952;12.676;2023-11-18T12:43:47;11.70;96.80
37086;DHT22;23001;45.952;12.676;2023-11-18T12:46:24;11.80;97.40
37086;DHT22;23001;45.952;12.676;2023-11-18T12:48:56;11.90;96.10
37086;DHT22;23001;45.952;12.676;2023-11-18T12:51:22;12.00;97.60
37086;DHT22;23001;45.952;12.676;2023-11-18T12:53:48;12.00;98.20
37086;DHT22;23001;45.952;12.676;2023-11-18T12:56:21;11.90;98.60
37086;DHT22;23001;45.952;12.676;2023-11-18T12:58:48;12.00;98.30
37086;DHT22;23001;45.952;12.676;2023-11-18T13:01:14;12.00;98.90
37086;DHT22;23001;45.952;12.676;2023-11-18T13:03:41;12.10;98.10
37086;DHT22;23001;45.952;12.676;2023-11-18T13:06:08;12.10;97.90
37086;DHT22;23001;45.952;12.676;2023-11-18T13:08:34;12.10;99.10
37086;DHT22;23001;45.952;12.676;2023-11-18T13:11:00;12.20;99.70
37086;DHT22;23001;45.952;12.676;2023-11-18T13:13:33;12.10;98.80
37086;DHT22;23001;45.952;12.676;2023-11-18T13:15:59;12.10;99.40
37086;DHT22;23001;45.952;12.676;2023-11-18T13:18:25;12.10;99.50
37086;DHT22;23001;45.952;12.676;2023-11-18T13:20:55;12.10;99.90
37086;DHT22;23001;45.952;12.676;2023-11-18T13:23:24;12.20;99.90
37086;DHT22;23001;45.952;12.676;2023-11-18T13:25:50;12.30;99.80
37086;DHT22;23001;45.952;12.676;2023-11-18T13:28:22;12.30;99.90
37086;DHT22;23001;45.952;12.676;2023-11-18T13:30:48;12.20;99.90
37086;DHT22;23001;45.952;12.676;2023-11-18T13:33:14;12.20;99.90
37086;DHT22;23001;45.952;12.676;2023-11-18T13:35:40;12.10;99.90
37086;DHT22;23001;45.952;12.676;2023-11-18T13:38:05;12.10;99.90
37086;DHT22;23001;45.952;12.676;2023-11-18T13:40:44;12.10;99.90
37086;DHT22;23001;45.952;12.676;2023-11-18T13:43:10;12.10;99.90
37086;DHT22;23001;45.952;12.676;2023-11-18T13:45:35;12.10;99.90
37086;DHT22;23001;45.952;12.676;2023-11-18T13:48:04;12.10;99.90
37086;DHT22;23001;45.952;12.676;2023-11-18T13:50:30;12.20;99.90
37086;DHT22;23001;45.952;12.676;2023-11-18T13:52:56;12.20;99.90
37086;DHT22;23001;45.952;12.676;2023-11-18T13:55:21;12.30;99.90
37086;DHT22;23001;45.952;12.676;2023-11-18T13:57:56;12.20;99.90
37086;DHT22;23001;45.952;12.676;2023-11-18T14:00:24;12.20;99.90
37086;DHT22;23001;45.952;12.676;2023-11-18T14:02:56;12.20;99.90
37086;DHT22;23001;45.952;12.676;2023-11-18T14:05:22;12.10;99.90
37086;DHT22;23001;45.952;12.676;2023-11-18T14:07:52;12.20;99.90
37086;DHT22;23001;45.952;12.676;2023-11-18T14:10:21;12.20;99.90
37086;DHT22;23001;45.952;12.676;2023-11-18T14:13:02;12.10;99.90
37086;DHT22;23001;45.952;12.676;2023-11-18T14:15:28;12.10;99.90
37086;DHT22;23001;45.952;12.676;2023-11-18T14:17:55;12.00;99.90
37086;DHT22;23001;45.952;12.676;2023-11-18T14:20:21;12.00;99.90
37086;DHT22;23001;45.952;12.676;2023-11-18T14:22:48;12.00;99.90
37086;DHT22;23001;45.952;12.676;2023-11-18T14:25:14;11.90;99.90
37086;DHT22;23001;45.952;12.676;2023-11-18T14:27:43;11.90;99.90
37086;DHT22;23001;45.952;12.676;2023-11-18T14:30:08;11.90;99.90
37086;DHT22;23001;45.952;12.676;2023-11-18T14:32:35;11.90;99.90
37086;DHT22;23001;45.952;12.676;2023-11-18T14:35:25;11.90;99.90
37086;DHT22;23001;45.952;12.676;2023-11-18T14:37:54;11.80;99.90
37086;DHT22;23001;45.952;12.676;2023-11-18T14:40:21;11.80;99.90
37086;DHT22;23001;45.952;12.676;2023-11-18T14:42:49;11.70;99.90
37086;DHT22;23001;45.952;12.676;2023-11-18T14:45:15;11.70;99.80
37086;DHT22;23001;45.952;12.676;2023-11-18T14:47:41;11.70;98.90
37086;DHT22;23001;45.952;12.676;2023-11-18T14:50:10;11.70;98.90
37086;DHT22;23001;45.952;12.676;2023-11-18T14:52:48;11.60;99.20
37086;DHT22;23001;45.952;12.676;2023-11-18T14:55:40;11.50;99.70
37086;DHT22;23001;45.952;12.676;2023-11-18T14:58:08;11.40;99.60
37086;DHT22;23001;45.952;12.676;2023-11-18T15:00:33;11.40;99.70
37086;DHT22;23001;45.952;12.676;2023-11-18T15:03:01;11.30;99.90
37086;DHT22;23001;45.952;12.676;2023-11-18T15:05:27;11.20;99.90
37086;DHT22;23001;45.952;12.676;2023-11-18T15:07:53;11.10;99.90
37086;DHT22;23001;45.952;12.676;2023-11-18T15:10:23;11.10;99.90
37086;DHT22;23001;45.952;12.676;2023-11-18T15:12:58;11.00;99.90
37086;DHT22;23001;45.952;12.676;2023-11-18T15:15:26;10.90;99.90
37086;DHT22;23001;45.952;12.676;2023-11-18T15:18:02;10.80;99.90
37086;DHT22;23001;45.952;12.676;2023-11-18T15:20:29;10.60;99.90
37086;DHT22;23001;45.952;12.676;2023-11-18T15:22:55;10.50;99.90
37086;DHT22;23001;45.952;12.676;2023-11-18T15:25:21;10.40;99.90
37086;DHT22;23001;45.952;12.676;2023-11-18T15:27:46;10.30;99.90
37086;DHT22;23001;45.952;12.676;2023-11-18T15:30:13;10.20;99.90
37086;DHT22;23001;45.952;12.676;2023-11-18T15:32:39;10.10;99.90
37086;DHT22;23001;45.952;12.676;2023-11-18T15:35:08;10.00;99.90
37086;DHT22;23001;45.952;12.676;2023-11-18T15:37:52;10.00;99.90
37086;DHT22;23001;45.952;12.676;2023-11-18T15:40:18;9.90;99.90
37086;DHT22;23001;45.952;12.676;2023-11-18T15:42:50;9.80;99.90
37086;DHT22;23001;45.952;12.676;2023-11-18T15:45:22;9.70;99.90
37086;DHT22;23001;45.952;12.676;2023-11-18T15:47:54;9.60;99.90
37086;DHT22;23001;45.952;12.676;2023-11-18T15:50:20;9.50;99.90